sensor_id;sensor_type;location;lat;lon;timestamp;pressure;altitude;pressure_sealevel;temperature;humidity
60820;BME280;46641;48.904;9.126;2024-03-23T00:57:13;97833.66;;;16.65;57.51
60820;BME280;46641;48.904;9.126;2024-03-23T01:02:03;97838.13;;;16.57;57.32
60820;BME280;46641;48.904;9.126;2024-03-23T01:06:53;97820.84;;;16.55;57.48
60820;BME280;46641;48.904;9.126;2024-03-23T01:11:44;97817.41;;;16.54;57.82
60820;BME280;46641;48.904;9.126;2024-03-23T01:16:34;97802.94;;;16.50;57.84
60820;BME280;46641;48.904;9.126;2024-03-23T01:21:24;97786.69;;;16.47;57.67
60820;BME280;46641;48.904;9.126;2024-03-23T01:26:14;97796.44;;;16.46;57.78
60820;BME280;46641;48.904;9.126;2024-03-23T01:31:05;97778.97;;;16.45;58.08
60820;BME280;46641;48.904;9.126;2024-03-23T01:35:55;97777.94;;;16.40;58.33
60820;BME280;46641;48.904;9.126;2024-03-23T01:40:45;97764.13;;;16.38;58.37
60820;BME280;46641;48.904;9.126;2024-03-23T01:45:36;97748.50;;;16.36;58.29
60820;BME280;46641;48.904;9.126;2024-03-23T01:50:27;97747.69;;;16.35;58.41
60820;BME280;46641;48.904;9.126;2024-03-23T01:55:17;97739.16;;;16.33;58.57
60820;BME280;46641;48.904;9.126;2024-03-23T02:00:08;97735.69;;;16.33;58.19
60820;BME280;46641;48.904;9.126;2024-03-23T02:05:02;97730.63;;;16.31;58.25
60820;BME280;46641;48.904;9.126;2024-03-23T02:09:53;97734.50;;;16.29;58.34
60820;BME280;46641;48.904;9.126;2024-03-23T02:14:43;97733.06;;;16.26;58.43
60820;BME280;46641;48.904;9.126;2024-03-23T02:19:33;97723.53;;;16.25;58.42
60820;BME280;46641;48.904;9.126;2024-03-23T02:24:24;97715.19;;;16.22;58.65
60820;BME280;46641;48.904;9.126;2024-03-23T02:29:14;97706.44;;;16.21;58.75
60820;BME280;46641;48.904;9.126;2024-03-23T02:34:04;97716.41;;;16.19;59.06
60820;BME280;46641;48.904;9.126;2024-03-23T02:38:55;97705.22;;;16.17;58.76
60820;BME280;46641;48.904;9.126;2024-03-23T02:43:48;97692.44;;;16.14;58.75
60820;BME280;46641;48.904;9.126;2024-03-23T02:48:39;97690.81;;;16.13;59.02
60820;BME280;46641;48.904;9.126;2024-03-23T02:53:29;97705.03;;;16.12;59.20
60820;BME280;46641;48.904;9.126;2024-03-23T02:58:19;97714.34;;;16.08;58.00
60820;BME280;46641;48.904;9.126;2024-03-23T03:03:09;97703.59;;;16.03;58.66
60820;BME280;46641;48.904;9.126;2024-03-23T03:08:00;97701.97;;;16.02;58.99
60820;BME280;46641;48.904;9.126;2024-03-23T03:12:50;97690.59;;;16.01;59.13
60820;BME280;46641;48.904;9.126;2024-03-23T03:17:40;97669.47;;;16.01;59.10
60820;BME280;46641;48.904;9.126;2024-03-23T03:22:30;97678.22;;;16.02;59.18
60820;BME280;46641;48.904;9.126;2024-03-23T03:27:21;97674.97;;;16.00;58.95
60820;BME280;46641;48.904;9.126;2024-03-23T03:32:12;97674.97;;;16.00;59.17
60820;BME280;46641;48.904;9.126;2024-03-23T03:37:03;97677.81;;;15.98;58.97
60820;BME280;46641;48.904;9.126;2024-03-23T03:41:53;97681.69;;;15.96;59.46
60820;BME280;46641;48.904;9.126;2024-03-23T03:46:43;97665.41;;;15.92;59.40
60820;BME280;46641;48.904;9.126;2024-03-23T03:51:34;97641.88;;;15.91;59.36
60820;BME280;46641;48.904;9.126;2024-03-23T03:56:24;97615.91;;;15.87;59.40
60820;BME280;46641;48.904;9.126;2024-03-23T04:01:14;97615.28;;;15.85;59.29
60820;BME280;46641;48.904;9.126;2024-03-23T04:06:05;97610.22;;;15.84;59.46
60820;BME280;46641;48.904;9.126;2024-03-23T04:10:55;97612.84;;;15.84;59.44
60820;BME280;46641;48.904;9.126;2024-03-23T04:15:45;97626.22;;;15.82;59.41
60820;BME280;46641;48.904;9.126;2024-03-23T04:20:36;97651.22;;;15.80;59.60
60820;BME280;46641;48.904;9.126;2024-03-23T04:25:26;97660.94;;;15.79;59.48
60820;BME280;46641;48.904;9.126;2024-03-23T04:30:16;97656.88;;;15.70;59.00
60820;BME280;46641;48.904;9.126;2024-03-23T04:35:08;97660.69;;;15.54;59.95
60820;BME280;46641;48.904;9.126;2024-03-23T04:40:01;97659.63;;;15.42;60.67
60820;BME280;46641;48.904;9.126;2024-03-23T04:44:53;97658.22;;;15.39;60.91
60820;BME280;46641;48.904;9.126;2024-03-23T04:49:43;97661.25;;;15.43;61.20
60820;BME280;46641;48.904;9.126;2024-03-23T04:54:33;97655.00;;;15.44;61.05
60820;BME280;46641;48.904;9.126;2024-03-23T04:59:24;97666.94;;;15.47;60.70
60820;BME280;46641;48.904;9.126;2024-03-23T05:04:14;97663.88;;;15.36;60.83
60820;BME280;46641;48.904;9.126;2024-03-23T05:09:04;97649.88;;;15.29;60.82
60820;BME280;46641;48.904;9.126;2024-03-23T05:14:01;97660.63;;;15.28;60.58
60820;BME280;46641;48.904;9.126;2024-03-23T05:18:53;97665.69;;;15.29;60.28
60820;BME280;46641;48.904;9.126;2024-03-23T05:23:43;97669.72;;;15.25;60.39
60820;BME280;46641;48.904;9.126;2024-03-23T05:28:33;97684.06;;;15.09;60.38
60820;BME280;46641;48.904;9.126;2024-03-23T05:33:23;97686.59;;;14.83;60.50
60820;BME280;46641;48.904;9.126;2024-03-23T05:38:14;97699.25;;;14.66;60.96
60820;BME280;46641;48.904;9.126;2024-03-23T05:43:04;97702.50;;;14.68;60.92
60820;BME280;46641;48.904;9.126;2024-03-23T05:47:54;97704.78;;;14.78;61.06
60820;BME280;46641;48.904;9.126;2024-03-23T05:52:46;97718.94;;;14.70;61.11
60820;BME280;46641;48.904;9.126;2024-03-23T05:57:37;97731.09;;;14.71;60.36
60820;BME280;46641;48.904;9.126;2024-03-23T06:02:27;97722.31;;;14.64;60.48
60820;BME280;46641;48.904;9.126;2024-03-23T06:07:17;97719.75;;;14.70;60.65
60820;BME280;46641;48.904;9.126;2024-03-23T06:12:08;97733.72;;;14.71;60.01
60820;BME280;46641;48.904;9.126;2024-03-23T06:16:59;97741.22;;;14.74;60.01
60820;BME280;46641;48.904;9.126;2024-03-23T06:21:49;97751.00;;;14.80;59.65
60820;BME280;46641;48.904;9.126;2024-03-23T06:26:39;97749.94;;;14.75;58.77
60820;BME280;46641;48.904;9.126;2024-03-23T06:31:31;97767.16;;;14.70;59.58
60820;BME280;46641;48.904;9.126;2024-03-23T06:36:21;97787.69;;;14.54;59.34
60820;BME280;46641;48.904;9.126;2024-03-23T06:41:11;97798.31;;;14.45;59.31
60820;BME280;46641;48.904;9.126;2024-03-23T06:46:03;97815.50;;;14.41;58.14
60820;BME280;46641;48.904;9.126;2024-03-23T06:50:57;97828.03;;;14.18;58.45
60820;BME280;46641;48.904;9.126;2024-03-23T06:55:52;97841.00;;;13.98;58.90
60820;BME280;46641;48.904;9.126;2024-03-23T07:00:42;97844.81;;;14.17;58.40
60820;BME280;46641;48.904;9.126;2024-03-23T07:05:33;97872.34;;;14.36;58.47
60820;BME280;46641;48.904;9.126;2024-03-23T07:10:23;97888.72;;;14.53;59.34
60820;BME280;46641;48.904;9.126;2024-03-23T07:15:13;97900.75;;;14.40;57.54
60820;BME280;46641;48.904;9.126;2024-03-23T07:20:04;97900.28;;;14.52;59.48
60820;BME280;46641;48.904;9.126;2024-03-23T07:24:54;97919.59;;;14.59;57.75
60820;BME280;46641;48.904;9.126;2024-03-23T07:29:45;97935.47;;;14.65;57.58
60820;BME280;46641;48.904;9.126;2024-03-23T07:34:35;97924.75;;;14.67;58.75
60820;BME280;46641;48.904;9.126;2024-03-23T07:39:25;97920.72;;;14.71;58.51
60820;BME280;46641;48.904;9.126;2024-03-23T07:44:17;97961.56;;;14.82;57.26
60820;BME280;46641;48.904;9.126;2024-03-23T07:49:08;97969.22;;;14.77;57.31
60820;BME280;46641;48.904;9.126;2024-03-23T07:53:58;97990.59;;;14.67;58.23
60820;BME280;46641;48.904;9.126;2024-03-23T07:58:48;98013.13;;;14.55;56.67
60820;BME280;46641;48.904;9.126;2024-03-23T08:03:41;98010.16;;;14.28;59.18
60820;BME280;46641;48.904;9.126;2024-03-23T08:08:31;98020.50;;;14.44;57.67
60820;BME280;46641;48.904;9.126;2024-03-23T08:13:21;98026.41;;;14.32;60.17
60820;BME280;46641;48.904;9.126;2024-03-23T08:18:12;98042.56;;;14.43;59.45
60820;BME280;46641;48.904;9.126;2024-03-23T08:23:05;98061.44;;;14.62;60.13
60820;BME280;46641;48.904;9.126;2024-03-23T08:27:56;98070.88;;;14.71;59.36
60820;BME280;46641;48.904;9.126;2024-03-23T08:32:46;98065.22;;;14.74;59.42
60820;BME280;46641;48.904;9.126;2024-03-23T08:37:37;98072.59;;;14.79;58.63
60820;BME280;46641;48.904;9.126;2024-03-23T08:42:27;98099.75;;;14.79;58.59
60820;BME280;46641;48.904;9.126;2024-03-23T08:47:17;98104.03;;;14.80;57.94
60820;BME280;46641;48.904;9.126;2024-03-23T08:52:08;98112.72;;;14.81;56.86
60820;BME280;46641;48.904;9.126;2024-03-23T08:56:58;98097.38;;;14.84;59.19
60820;BME280;46641;48.904;9.126;2024-03-23T09:01:48;98114.19;;;14.83;57.63
60820;BME280;46641;48.904;9.126;2024-03-23T09:06:38;98137.25;;;14.81;57.50
60820;BME280;46641;48.904;9.126;2024-03-23T09:11:28;98144.63;;;14.86;58.06
60820;BME280;46641;48.904;9.126;2024-03-23T09:16:19;98152.53;;;14.71;56.74
60820;BME280;46641;48.904;9.126;2024-03-23T09:21:12;98154.91;;;14.66;55.68
60820;BME280;46641;48.904;9.126;2024-03-23T09:26:04;98168.50;;;14.55;56.73
60820;BME280;46641;48.904;9.126;2024-03-23T09:30:54;98181.97;;;14.60;57.51
60820;BME280;46641;48.904;9.126;2024-03-23T09:35:45;98184.50;;;14.68;57.76
60820;BME280;46641;48.904;9.126;2024-03-23T09:40:40;98190.97;;;14.80;55.77
60820;BME280;46641;48.904;9.126;2024-03-23T09:45:31;98192.66;;;14.88;56.41
60820;BME280;46641;48.904;9.126;2024-03-23T09:50:23;98185.50;;;14.96;54.87
60820;BME280;46641;48.904;9.126;2024-03-23T09:55:14;98170.56;;;15.04;56.21
60820;BME280;46641;48.904;9.126;2024-03-23T10:00:05;98173.50;;;15.09;56.67
60820;BME280;46641;48.904;9.126;2024-03-23T10:04:56;98174.94;;;14.96;55.66
60820;BME280;46641;48.904;9.126;2024-03-23T10:09:47;98174.47;;;15.08;56.75
60820;BME280;46641;48.904;9.126;2024-03-23T10:14:38;98165.53;;;15.24;55.90
60820;BME280;46641;48.904;9.126;2024-03-23T10:19:31;98162.44;;;15.35;56.73
60820;BME280;46641;48.904;9.126;2024-03-23T10:24:21;98157.97;;;15.35;56.22
60820;BME280;46641;48.904;9.126;2024-03-23T10:29:12;98162.81;;;15.32;57.31
60820;BME280;46641;48.904;9.126;2024-03-23T10:34:03;98158.41;;;15.39;56.62
60820;BME280;46641;48.904;9.126;2024-03-23T10:38:54;98176.22;;;15.37;57.56
60820;BME280;46641;48.904;9.126;2024-03-23T10:43:46;98197.97;;;15.39;56.80
60820;BME280;46641;48.904;9.126;2024-03-23T10:48:36;98238.41;;;14.95;54.26
60820;BME280;46641;48.904;9.126;2024-03-23T10:53:28;98252.44;;;14.58;57.71
60820;BME280;46641;48.904;9.126;2024-03-23T10:58:23;98265.44;;;14.74;58.10
60820;BME280;46641;48.904;9.126;2024-03-23T11:03:34;98271.25;;;14.69;57.86
60820;BME280;46641;48.904;9.126;2024-03-23T11:08:31;98212.94;;;14.87;58.96
60820;BME280;46641;48.904;9.126;2024-03-23T11:13:22;98224.81;;;15.13;59.41
60820;BME280;46641;48.904;9.126;2024-03-23T11:18:20;98208.16;;;15.27;58.50
60820;BME280;46641;48.904;9.126;2024-03-23T11:23:27;98213.91;;;15.31;58.61
60820;BME280;46641;48.904;9.126;2024-03-23T11:28:17;98220.00;;;15.31;59.51
60820;BME280;46641;48.904;9.126;2024-03-23T11:33:07;98211.44;;;15.29;59.72
60820;BME280;46641;48.904;9.126;2024-03-23T11:38:17;98215.09;;;15.28;59.35
60820;BME280;46641;48.904;9.126;2024-03-23T11:43:17;98213.06;;;15.30;59.77
60820;BME280;46641;48.904;9.126;2024-03-23T11:48:15;98202.16;;;15.33;59.88
60820;BME280;46641;48.904;9.126;2024-03-23T11:53:21;98200.03;;;15.43;59.09
60820;BME280;46641;48.904;9.126;2024-03-23T11:58:19;98196.66;;;15.50;59.57
60820;BME280;46641;48.904;9.126;2024-03-23T12:03:09;98205.22;;;15.52;59.32
60820;BME280;46641;48.904;9.126;2024-03-23T12:08:35;98187.84;;;15.21;51.81
60820;BME280;46641;48.904;9.126;2024-03-23T12:13:26;98192.66;;;15.03;56.75
60820;BME280;46641;48.904;9.126;2024-03-23T12:18:17;98165.75;;;15.07;57.92
60820;BME280;46641;48.904;9.126;2024-03-23T12:23:13;98164.13;;;15.06;52.38
60820;BME280;46641;48.904;9.126;2024-03-23T12:28:03;98170.41;;;14.90;52.87
60820;BME280;46641;48.904;9.126;2024-03-23T12:32:56;98178.78;;;14.79;52.38
60820;BME280;46641;48.904;9.126;2024-03-23T12:37:46;98164.25;;;14.83;54.49
60820;BME280;46641;48.904;9.126;2024-03-23T12:42:37;98154.06;;;14.95;55.92
60820;BME280;46641;48.904;9.126;2024-03-23T12:47:27;98164.94;;;15.07;56.25
60820;BME280;46641;48.904;9.126;2024-03-23T12:52:17;98160.84;;;15.04;56.42
60820;BME280;46641;48.904;9.126;2024-03-23T12:57:07;98156.94;;;15.15;58.85
60820;BME280;46641;48.904;9.126;2024-03-23T13:01:58;98154.06;;;15.31;58.88
60820;BME280;46641;48.904;9.126;2024-03-23T13:06:49;98147.50;;;15.42;58.88
60820;BME280;46641;48.904;9.126;2024-03-23T13:11:39;98143.03;;;15.42;58.41
60820;BME280;46641;48.904;9.126;2024-03-23T13:16:29;98139.47;;;15.50;57.10
60820;BME280;46641;48.904;9.126;2024-03-23T13:21:19;98134.00;;;15.52;57.05
60820;BME280;46641;48.904;9.126;2024-03-23T13:26:10;98128.34;;;15.55;56.78
60820;BME280;46641;48.904;9.126;2024-03-23T13:31:00;98102.34;;;15.52;57.78
60820;BME280;46641;48.904;9.126;2024-03-23T13:35:54;98086.84;;;15.42;56.95
60820;BME280;46641;48.904;9.126;2024-03-23T13:40:53;98097.19;;;15.43;50.96
60820;BME280;46641;48.904;9.126;2024-03-23T13:45:45;98112.50;;;15.33;54.33
60820;BME280;46641;48.904;9.126;2024-03-23T13:50:36;98194.31;;;14.59;52.33
60820;BME280;46641;48.904;9.126;2024-03-23T13:55:26;98188.25;;;14.36;56.19
60820;BME280;46641;48.904;9.126;2024-03-23T14:00:16;98194.41;;;14.51;58.09
60820;BME280;46641;48.904;9.126;2024-03-23T14:05:08;98210.47;;;14.71;55.47
60820;BME280;46641;48.904;9.126;2024-03-23T14:10:03;98184.16;;;14.56;59.79
60820;BME280;46641;48.904;9.126;2024-03-23T14:14:53;98180.69;;;14.85;60.06
60820;BME280;46641;48.904;9.126;2024-03-23T14:19:44;98186.31;;;15.12;59.92
60820;BME280;46641;48.904;9.126;2024-03-23T14:24:34;98174.53;;;15.29;59.96
60820;BME280;46641;48.904;9.126;2024-03-23T14:29:24;98156.59;;;15.39;59.78
60820;BME280;46641;48.904;9.126;2024-03-23T14:34:14;98134.75;;;15.46;59.55
60820;BME280;46641;48.904;9.126;2024-03-23T14:39:05;98111.44;;;15.49;60.08
60820;BME280;46641;48.904;9.126;2024-03-23T14:43:55;98105.41;;;15.55;59.07
60820;BME280;46641;48.904;9.126;2024-03-23T14:48:45;98113.69;;;15.52;59.85
60820;BME280;46641;48.904;9.126;2024-03-23T14:53:38;98116.53;;;15.51;59.25
60820;BME280;46641;48.904;9.126;2024-03-23T14:58:30;98130.22;;;15.39;58.76
60820;BME280;46641;48.904;9.126;2024-03-23T15:03:21;98137.44;;;15.31;58.25
60820;BME280;46641;48.904;9.126;2024-03-23T15:08:11;98143.56;;;15.16;55.67
60820;BME280;46641;48.904;9.126;2024-03-23T15:13:01;98130.50;;;15.08;57.48
60820;BME280;46641;48.904;9.126;2024-03-23T15:17:52;98132.13;;;15.09;57.49
60820;BME280;46641;48.904;9.126;2024-03-23T15:22:42;98120.41;;;15.12;59.73
60820;BME280;46641;48.904;9.126;2024-03-23T15:27:32;98119.47;;;15.19;60.13
60820;BME280;46641;48.904;9.126;2024-03-23T15:32:23;98121.78;;;15.29;60.30
60820;BME280;46641;48.904;9.126;2024-03-23T15:37:13;98116.78;;;15.34;58.76
60820;BME280;46641;48.904;9.126;2024-03-23T15:42:04;98112.75;;;15.38;60.07
60820;BME280;46641;48.904;9.126;2024-03-23T15:46:55;98118.47;;;15.42;60.01
60820;BME280;46641;48.904;9.126;2024-03-23T15:51:45;98126.19;;;15.43;59.63
60820;BME280;46641;48.904;9.126;2024-03-23T15:56:36;98127.78;;;15.38;59.43
60820;BME280;46641;48.904;9.126;2024-03-23T16:01:26;98104.22;;;15.36;59.90
60820;BME280;46641;48.904;9.126;2024-03-23T16:06:17;98103.22;;;15.37;59.78
60820;BME280;46641;48.904;9.126;2024-03-23T16:11:07;98087.78;;;15.34;58.89
60820;BME280;46641;48.904;9.126;2024-03-23T16:16:03;98084.25;;;15.27;60.20
60820;BME280;46641;48.904;9.126;2024-03-23T16:20:58;98079.22;;;15.32;60.56
60820;BME280;46641;48.904;9.126;2024-03-23T16:25:53;98086.56;;;15.37;60.44
60820;BME280;46641;48.904;9.126;2024-03-23T16:30:53;98098.94;;;15.36;58.50
60820;BME280;46641;48.904;9.126;2024-03-23T16:35:43;98103.16;;;15.31;60.59
60820;BME280;46641;48.904;9.126;2024-03-23T16:40:34;98099.06;;;15.28;60.52
60820;BME280;46641;48.904;9.126;2024-03-23T16:45:25;98102.94;;;15.11;58.73
60820;BME280;46641;48.904;9.126;2024-03-23T16:50:15;98107.84;;;15.14;59.90
60820;BME280;46641;48.904;9.126;2024-03-23T16:55:06;98117.63;;;15.20;59.95
60820;BME280;46641;48.904;9.126;2024-03-23T16:59:56;98115.28;;;15.25;59.95
60820;BME280;46641;48.904;9.126;2024-03-23T17:04:46;98109.34;;;15.23;59.40
60820;BME280;46641;48.904;9.126;2024-03-23T17:09:46;98100.78;;;15.14;52.97
60820;BME280;46641;48.904;9.126;2024-03-23T17:14:37;98120.09;;;14.85;54.23
60820;BME280;46641;48.904;9.126;2024-03-23T17:19:27;98144.28;;;14.59;56.30
60820;BME280;46641;48.904;9.126;2024-03-23T17:24:17;98145.19;;;14.52;59.97
60820;BME280;46641;48.904;9.126;2024-03-23T17:29:08;98150.81;;;14.63;60.42
60820;BME280;46641;48.904;9.126;2024-03-23T17:33:58;98145.16;;;14.81;60.40
60820;BME280;46641;48.904;9.126;2024-03-23T17:38:48;98161.50;;;14.91;60.08
60820;BME280;46641;48.904;9.126;2024-03-23T17:43:38;98163.97;;;14.93;60.09
60820;BME280;46641;48.904;9.126;2024-03-23T17:48:28;98178.16;;;14.92;60.23
60820;BME280;46641;48.904;9.126;2024-03-23T17:53:19;98184.59;;;14.89;59.84
60820;BME280;46641;48.904;9.126;2024-03-23T17:58:09;98188.03;;;14.75;61.25
60820;BME280;46641;48.904;9.126;2024-03-23T18:02:59;98157.81;;;14.71;61.09
60820;BME280;46641;48.904;9.126;2024-03-23T18:07:50;98160.78;;;14.68;60.81
60820;BME280;46641;48.904;9.126;2024-03-23T18:12:40;98168.00;;;14.59;59.39
60820;BME280;46641;48.904;9.126;2024-03-23T18:17:31;98162.94;;;14.35;56.09
60820;BME280;46641;48.904;9.126;2024-03-23T18:22:21;98154.44;;;14.10;58.81
60820;BME280;46641;48.904;9.126;2024-03-23T18:27:11;98138.94;;;14.15;59.63
60820;BME280;46641;48.904;9.126;2024-03-23T18:32:03;98152.38;;;14.20;60.59
60820;BME280;46641;48.904;9.126;2024-03-23T18:36:54;98155.66;;;14.22;61.37
60820;BME280;46641;48.904;9.126;2024-03-23T18:41:44;98126.78;;;14.29;61.69
60820;BME280;46641;48.904;9.126;2024-03-23T18:46:34;98134.34;;;14.32;61.54
60820;BME280;46641;48.904;9.126;2024-03-23T18:51:25;98127.91;;;14.34;61.61
60820;BME280;46641;48.904;9.126;2024-03-23T18:56:15;98134.78;;;14.35;61.77
60820;BME280;46641;48.904;9.126;2024-03-23T19:01:06;98141.06;;;14.34;61.73
60820;BME280;46641;48.904;9.126;2024-03-23T19:05:58;98130.69;;;14.33;61.89
60820;BME280;46641;48.904;9.126;2024-03-23T19:10:56;98127.25;;;14.32;61.38
60820;BME280;46641;48.904;9.126;2024-03-23T19:15:47;98132.72;;;14.31;61.74
60820;BME280;46641;48.904;9.126;2024-03-23T19:20:38;98133.06;;;14.27;61.89
60820;BME280;46641;48.904;9.126;2024-03-23T19:25:29;98128.78;;;14.26;62.09
60820;BME280;46641;48.904;9.126;2024-03-23T19:30:20;98118.44;;;14.25;62.09
60820;BME280;46641;48.904;9.126;2024-03-23T19:35:10;98133.59;;;14.23;62.02
60820;BME280;46641;48.904;9.126;2024-03-23T19:40:00;98127.72;;;14.21;62.10
60820;BME280;46641;48.904;9.126;2024-03-23T19:44:50;98127.06;;;14.19;62.08
60820;BME280;46641;48.904;9.126;2024-03-23T19:49:41;98127.63;;;14.14;62.13
60820;BME280;46641;48.904;9.126;2024-03-23T19:54:31;98125.34;;;14.11;62.20
60820;BME280;46641;48.904;9.126;2024-03-23T19:59:21;98130.97;;;14.08;62.25
60820;BME280;46641;48.904;9.126;2024-03-23T20:04:12;98116.34;;;14.06;62.46
60820;BME280;46641;48.904;9.126;2024-03-23T20:09:02;98129.84;;;14.02;62.30
60820;BME280;46641;48.904;9.126;2024-03-23T20:13:53;98133.66;;;14.00;62.37
60820;BME280;46641;48.904;9.126;2024-03-23T20:18:43;98125.13;;;13.98;62.25
60820;BME280;46641;48.904;9.126;2024-03-23T20:23:34;98111.53;;;13.94;62.30
60820;BME280;46641;48.904;9.126;2024-03-23T20:28:25;98108.25;;;13.92;62.28
60820;BME280;46641;48.904;9.126;2024-03-23T20:33:16;98103.97;;;13.91;62.52
60820;BME280;46641;48.904;9.126;2024-03-23T20:38:06;98114.22;;;13.86;62.81
60820;BME280;46641;48.904;9.126;2024-03-23T20:43:07;98120.63;;;13.84;62.05
60820;BME280;46641;48.904;9.126;2024-03-23T20:47:58;98116.75;;;13.79;62.67
60820;BME280;46641;48.904;9.126;2024-03-23T20:52:49;98114.47;;;13.76;62.91
60820;BME280;46641;48.904;9.126;2024-03-23T20:57:41;98120.06;;;13.73;62.97
60820;BME280;46641;48.904;9.126;2024-03-23T21:02:31;98112.53;;;13.70;62.99
60820;BME280;46641;48.904;9.126;2024-03-23T21:07:21;98116.34;;;13.68;63.04
60820;BME280;46641;48.904;9.126;2024-03-23T21:12:11;98111.41;;;13.65;63.00
60820;BME280;46641;48.904;9.126;2024-03-23T21:17:02;98117.88;;;13.62;63.23
60820;BME280;46641;48.904;9.126;2024-03-23T21:21:52;98121.66;;;13.60;63.08
60820;BME280;46641;48.904;9.126;2024-03-23T21:26:42;98116.56;;;13.58;63.17
60820;BME280;46641;48.904;9.126;2024-03-23T21:31:32;98114.94;;;13.57;63.41
60820;BME280;46641;48.904;9.126;2024-03-23T21:36:23;98112.03;;;13.52;63.24
60820;BME280;46641;48.904;9.126;2024-03-23T21:41:15;98109.56;;;13.50;63.38
60820;BME280;46641;48.904;9.126;2024-03-23T21:46:05;98097.44;;;13.49;63.33
60820;BME280;46641;48.904;9.126;2024-03-23T21:51:02;98082.97;;;13.45;62.93
60820;BME280;46641;48.904;9.126;2024-03-23T21:55:53;98071.03;;;13.43;63.43
60820;BME280;46641;48.904;9.126;2024-03-23T22:00:44;98065.78;;;13.43;63.15
60820;BME280;46641;48.904;9.126;2024-03-23T22:05:35;98064.31;;;13.40;63.21
60820;BME280;46641;48.904;9.126;2024-03-23T22:10:25;98060.06;;;13.39;63.42
60820;BME280;46641;48.904;9.126;2024-03-23T22:15:15;98060.41;;;13.36;63.56
60820;BME280;46641;48.904;9.126;2024-03-23T22:20:06;98057.13;;;13.34;63.52
60820;BME280;46641;48.904;9.126;2024-03-23T22:24:57;98047.78;;;13.31;63.52
60820;BME280;46641;48.904;9.126;2024-03-23T22:29:47;98042.50;;;13.31;63.62
60820;BME280;46641;48.904;9.126;2024-03-23T22:34:38;98031.53;;;13.28;63.75
60820;BME280;46641;48.904;9.126;2024-03-23T22:39:32;98029.91;;;13.27;63.77
60820;BME280;46641;48.904;9.126;2024-03-23T22:44:22;98030.91;;;13.26;63.88
60820;BME280;46641;48.904;9.126;2024-03-23T22:49:13;98030.22;;;13.24;63.75
60820;BME280;46641;48.904;9.126;2024-03-23T22:54:04;98020.72;;;13.23;64.09
60820;BME280;46641;48.904;9.126;2024-03-23T22:58:54;98005.31;;;13.20;64.09
60820;BME280;46641;48.904;9.126;2024-03-23T23:03:44;98006.13;;;13.20;63.72
60820;BME280;46641;48.904;9.126;2024-03-23T23:08:35;97996.59;;;13.19;64.04
60820;BME280;46641;48.904;9.126;2024-03-23T23:13:27;97985.63;;;13.16;63.89
60820;BME280;46641;48.904;9.126;2024-03-23T23:18:17;97984.63;;;13.17;64.27
60820;BME280;46641;48.904;9.126;2024-03-23T23:23:08;97978.72;;;13.15;63.97
60820;BME280;46641;48.904;9.126;2024-03-23T23:27:58;97978.72;;;13.15;64.09
60820;BME280;46641;48.904;9.126;2024-03-23T23:32:48;97960.53;;;13.13;63.90
60820;BME280;46641;48.904;9.126;2024-03-23T23:37:38;97960.69;;;13.12;64.22
60820;BME280;46641;48.904;9.126;2024-03-23T23:42:29;97947.75;;;13.10;64.13
60820;BME280;46641;48.904;9.126;2024-03-23T23:47:20;97945.94;;;13.10;64.39
60820;BME280;46641;48.904;9.126;2024-03-23T23:52:11;97952.16;;;13.09;64.45
60820;BME280;46641;48.904;9.126;2024-03-23T23:57:03;97938.41;;;13.07;64.46
